LKL weather

Banak Airport
Lakselv, Finnmark, Norway

Public forecast

Using degrees Celsius for public forecast. Weather courtesy of forecast.io.

Current aviation weather report (METAR) for Banak Airport

Retrieved 2020/01/29 20:20 UTC (0 seconds ago):

ENNA 292020Z 19022KT 9000 -SN BKN015 M11/M14 Q1010 RMK WIND 1800FT 18049KT

Aviation forecast (TAF) for Banak Airport

Retrieved 2020/01/29 18:57 UTC (1 hour ago):

TAF TAF ENNA 291700Z 2918/3018 19018KT 9999 FEW010 BKN035 TEMPO 2918/3018 19028KT DRSN TEMPO 2918/2924 4000 -SN BLSN VV012